sensor_id;sensor_type;location;lat;lon;timestamp;temperature;humidity
68378;DHT22;55322;48.146;11.516;2022-10-15T00:01:22;12.66;96.89
68378;DHT22;55322;48.146;11.516;2022-10-15T00:03:47;12.64;96.28
68378;DHT22;55322;48.146;11.516;2022-10-15T00:06:15;12.60;96.30
68378;DHT22;55322;48.146;11.516;2022-10-15T00:08:41;12.66;96.26
68378;DHT22;55322;48.146;11.516;2022-10-15T00:11:10;12.67;96.49
68378;DHT22;55322;48.146;11.516;2022-10-15T00:13:36;12.63;96.21
68378;DHT22;55322;48.146;11.516;2022-10-15T00:16:02;12.60;96.47
68378;DHT22;55322;48.146;11.516;2022-10-15T00:18:28;12.72;96.29
68378;DHT22;55322;48.146;11.516;2022-10-15T00:20:54;12.66;96.25
68378;DHT22;55322;48.146;11.516;2022-10-15T00:23:19;12.64;96.57
68378;DHT22;55322;48.146;11.516;2022-10-15T00:25:44;12.63;96.78
68378;DHT22;55322;48.146;11.516;2022-10-15T00:28:09;12.63;96.80
68378;DHT22;55322;48.146;11.516;2022-10-15T00:30:35;12.57;96.65
68378;DHT22;55322;48.146;11.516;2022-10-15T00:33:00;12.62;96.63
68378;DHT22;55322;48.146;11.516;2022-10-15T00:35:25;12.60;96.54
68378;DHT22;55322;48.146;11.516;2022-10-15T00:37:51;12.66;96.55
68378;DHT22;55322;48.146;11.516;2022-10-15T00:40:16;12.63;96.65
68378;DHT22;55322;48.146;11.516;2022-10-15T00:42:41;12.59;96.96
68378;DHT22;55322;48.146;11.516;2022-10-15T00:45:10;12.59;97.27
68378;DHT22;55322;48.146;11.516;2022-10-15T00:47:41;12.55;97.24
68378;DHT22;55322;48.146;11.516;2022-10-15T00:50:10;12.57;96.95
68378;DHT22;55322;48.146;11.516;2022-10-15T00:55:17;12.53;97.31
68378;DHT22;55322;48.146;11.516;2022-10-15T00:57:48;12.57;97.30
68378;DHT22;55322;48.146;11.516;2022-10-15T01:00:14;12.55;97.24
68378;DHT22;55322;48.146;11.516;2022-10-15T01:02:40;12.59;97.02
68378;DHT22;55322;48.146;11.516;2022-10-15T01:05:07;12.56;97.33
68378;DHT22;55322;48.146;11.516;2022-10-15T01:07:33;12.57;97.36
68378;DHT22;55322;48.146;11.516;2022-10-15T01:09:58;12.57;96.83
68378;DHT22;55322;48.146;11.516;2022-10-15T01:12:47;12.56;97.47
68378;DHT22;55322;48.146;11.516;2022-10-15T01:15:29;12.56;97.47
68378;DHT22;55322;48.146;11.516;2022-10-15T01:23:13;12.53;97.25
68378;DHT22;55322;48.146;11.516;2022-10-15T01:31:01;12.48;98.00
68378;DHT22;55322;48.146;11.516;2022-10-15T01:36:19;12.53;97.61
68378;DHT22;55322;48.146;11.516;2022-10-15T01:38:59;12.53;97.92
68378;DHT22;55322;48.146;11.516;2022-10-15T01:41:35;12.53;97.71
68378;DHT22;55322;48.146;11.516;2022-10-15T01:44:05;12.59;97.79
68378;DHT22;55322;48.146;11.516;2022-10-15T01:46:49;12.49;97.62
68378;DHT22;55322;48.146;11.516;2022-10-15T01:49:18;12.50;97.92
68378;DHT22;55322;48.146;11.516;2022-10-15T01:51:51;12.55;97.97
68378;DHT22;55322;48.146;11.516;2022-10-15T01:54:18;12.50;97.75
68378;DHT22;55322;48.146;11.516;2022-10-15T01:56:47;12.55;97.79
68378;DHT22;55322;48.146;11.516;2022-10-15T01:59:20;12.48;98.21
68378;DHT22;55322;48.146;11.516;2022-10-15T02:01:46;12.45;98.31
68378;DHT22;55322;48.146;11.516;2022-10-15T02:04:21;12.48;98.24
68378;DHT22;55322;48.146;11.516;2022-10-15T02:07:04;12.49;98.06
68378;DHT22;55322;48.146;11.516;2022-10-15T02:09:56;12.46;98.21
68378;DHT22;55322;48.146;11.516;2022-10-15T02:12:51;12.52;98.31
68378;DHT22;55322;48.146;11.516;2022-10-15T02:15:44;12.45;98.33
68378;DHT22;55322;48.146;11.516;2022-10-15T02:18:17;12.46;98.45
68378;DHT22;55322;48.146;11.516;2022-10-15T02:21:02;12.45;98.64
68378;DHT22;55322;48.146;11.516;2022-10-15T02:23:53;12.46;98.66
68378;DHT22;55322;48.146;11.516;2022-10-15T02:26:20;12.48;98.29
68378;DHT22;55322;48.146;11.516;2022-10-15T02:28:52;12.50;98.26
68378;DHT22;55322;48.146;11.516;2022-10-15T02:31:19;12.50;98.27
68378;DHT22;55322;48.146;11.516;2022-10-15T02:33:47;12.49;98.46
68378;DHT22;55322;48.146;11.516;2022-10-15T02:36:14;12.52;98.54
68378;DHT22;55322;48.146;11.516;2022-10-15T02:38:42;12.48;98.62
68378;DHT22;55322;48.146;11.516;2022-10-15T02:41:08;12.50;98.36
68378;DHT22;55322;48.146;11.516;2022-10-15T02:43:35;12.53;98.54
68378;DHT22;55322;48.146;11.516;2022-10-15T02:46:00;12.55;98.31
68378;DHT22;55322;48.146;11.516;2022-10-15T02:48:25;12.62;98.07
68378;DHT22;55322;48.146;11.516;2022-10-15T02:50:51;12.63;97.92
68378;DHT22;55322;48.146;11.516;2022-10-15T02:53:16;12.64;98.01
68378;DHT22;55322;48.146;11.516;2022-10-15T02:55:41;12.66;97.93
68378;DHT22;55322;48.146;11.516;2022-10-15T02:58:07;12.69;97.98
68378;DHT22;55322;48.146;11.516;2022-10-15T03:00:32;12.72;98.15
68378;DHT22;55322;48.146;11.516;2022-10-15T03:02:57;12.75;98.25
68378;DHT22;55322;48.146;11.516;2022-10-15T03:05:23;12.75;98.09
68378;DHT22;55322;48.146;11.516;2022-10-15T03:07:48;12.83;97.75
68378;DHT22;55322;48.146;11.516;2022-10-15T03:10:13;12.79;97.97
68378;DHT22;55322;48.146;11.516;2022-10-15T03:12:39;12.77;98.44
68378;DHT22;55322;48.146;11.516;2022-10-15T03:15:05;12.80;98.12
68378;DHT22;55322;48.146;11.516;2022-10-15T03:17:30;12.82;98.21
68378;DHT22;55322;48.146;11.516;2022-10-15T03:19:56;12.86;97.83
68378;DHT22;55322;48.146;11.516;2022-10-15T03:22:21;12.80;98.20
68378;DHT22;55322;48.146;11.516;2022-10-15T03:24:46;12.82;98.19
68378;DHT22;55322;48.146;11.516;2022-10-15T03:27:11;12.84;98.15
68378;DHT22;55322;48.146;11.516;2022-10-15T03:29:37;12.89;98.08
68378;DHT22;55322;48.146;11.516;2022-10-15T03:32:02;12.87;98.37
68378;DHT22;55322;48.146;11.516;2022-10-15T03:34:28;12.87;98.28
68378;DHT22;55322;48.146;11.516;2022-10-15T03:36:53;12.89;98.58
68378;DHT22;55322;48.146;11.516;2022-10-15T03:39:18;12.86;98.54
68378;DHT22;55322;48.146;11.516;2022-10-15T03:41:43;12.90;98.47
68378;DHT22;55322;48.146;11.516;2022-10-15T03:44:09;12.96;98.37
68378;DHT22;55322;48.146;11.516;2022-10-15T03:46:34;12.89;98.64
68378;DHT22;55322;48.146;11.516;2022-10-15T03:49:00;12.96;98.34
68378;DHT22;55322;48.146;11.516;2022-10-15T03:51:25;12.99;98.24
68378;DHT22;55322;48.146;11.516;2022-10-15T03:53:51;12.96;98.50
68378;DHT22;55322;48.146;11.516;2022-10-15T03:56:17;12.94;98.67
68378;DHT22;55322;48.146;11.516;2022-10-15T03:58:42;13.02;98.42
68378;DHT22;55322;48.146;11.516;2022-10-15T04:01:12;12.96;98.59
68378;DHT22;55322;48.146;11.516;2022-10-15T04:03:38;12.97;98.73
68378;DHT22;55322;48.146;11.516;2022-10-15T04:06:04;12.96;98.85
68378;DHT22;55322;48.146;11.516;2022-10-15T04:08:30;12.94;98.82
68378;DHT22;55322;48.146;11.516;2022-10-15T04:10:55;13.03;98.45
68378;DHT22;55322;48.146;11.516;2022-10-15T04:13:20;13.06;98.20
68378;DHT22;55322;48.146;11.516;2022-10-15T04:15:46;13.07;98.31
68378;DHT22;55322;48.146;11.516;2022-10-15T04:18:11;13.06;98.52
68378;DHT22;55322;48.146;11.516;2022-10-15T04:20:37;13.07;98.63
68378;DHT22;55322;48.146;11.516;2022-10-15T04:23:02;13.06;99.00
68378;DHT22;55322;48.146;11.516;2022-10-15T04:25:28;13.11;98.60
68378;DHT22;55322;48.146;11.516;2022-10-15T04:27:53;13.13;98.82
68378;DHT22;55322;48.146;11.516;2022-10-15T04:30:19;13.21;98.41
68378;DHT22;55322;48.146;11.516;2022-10-15T04:32:44;13.21;98.72
68378;DHT22;55322;48.146;11.516;2022-10-15T04:35:09;13.25;98.67
68378;DHT22;55322;48.146;11.516;2022-10-15T04:37:35;13.28;98.63
68378;DHT22;55322;48.146;11.516;2022-10-15T04:40:00;13.27;98.72
68378;DHT22;55322;48.146;11.516;2022-10-15T04:42:28;13.33;98.74
68378;DHT22;55322;48.146;11.516;2022-10-15T04:44:53;13.34;98.74
68378;DHT22;55322;48.146;11.516;2022-10-15T04:47:19;13.33;98.88
68378;DHT22;55322;48.146;11.516;2022-10-15T04:49:44;13.38;98.65
68378;DHT22;55322;48.146;11.516;2022-10-15T04:52:09;13.41;98.67
68378;DHT22;55322;48.146;11.516;2022-10-15T04:54:35;13.47;98.59
68378;DHT22;55322;48.146;11.516;2022-10-15T04:57:04;13.50;98.73
68378;DHT22;55322;48.146;11.516;2022-10-15T04:59:30;13.51;98.61
68378;DHT22;55322;48.146;11.516;2022-10-15T05:01:55;13.55;98.66
68378;DHT22;55322;48.146;11.516;2022-10-15T05:04:21;13.58;98.60
68378;DHT22;55322;48.146;11.516;2022-10-15T05:06:46;13.59;98.75
68378;DHT22;55322;48.146;11.516;2022-10-15T05:09:12;13.78;97.83
68378;DHT22;55322;48.146;11.516;2022-10-15T05:11:38;13.74;97.94
68378;DHT22;55322;48.146;11.516;2022-10-15T05:14:04;13.72;98.18
68378;DHT22;55322;48.146;11.516;2022-10-15T05:16:30;13.72;98.17
68378;DHT22;55322;48.146;11.516;2022-10-15T05:18:59;13.82;97.87
68378;DHT22;55322;48.146;11.516;2022-10-15T05:21:24;13.78;98.03
68378;DHT22;55322;48.146;11.516;2022-10-15T05:23:50;13.83;97.71
68378;DHT22;55322;48.146;11.516;2022-10-15T05:26:18;13.88;97.76
68378;DHT22;55322;48.146;11.516;2022-10-15T05:28:43;13.85;97.85
68378;DHT22;55322;48.146;11.516;2022-10-15T05:31:11;13.83;97.89
68378;DHT22;55322;48.146;11.516;2022-10-15T05:33:37;13.82;98.09
68378;DHT22;55322;48.146;11.516;2022-10-15T05:38:33;13.89;97.70
68378;DHT22;55322;48.146;11.516;2022-10-15T05:40:59;13.86;97.93
68378;DHT22;55322;48.146;11.516;2022-10-15T05:43:24;13.94;97.70
68378;DHT22;55322;48.146;11.516;2022-10-15T05:45:53;13.94;97.67
68378;DHT22;55322;48.146;11.516;2022-10-15T05:48:18;13.96;97.42
68378;DHT22;55322;48.146;11.516;2022-10-15T05:50:44;13.94;97.70
68378;DHT22;55322;48.146;11.516;2022-10-15T05:53:09;13.94;97.79
68378;DHT22;55322;48.146;11.516;2022-10-15T05:55:34;13.92;97.90
68378;DHT22;55322;48.146;11.516;2022-10-15T05:58:01;13.90;97.96
68378;DHT22;55322;48.146;11.516;2022-10-15T06:00:27;13.96;97.85
68378;DHT22;55322;48.146;11.516;2022-10-15T06:02:53;13.98;97.92
68378;DHT22;55322;48.146;11.516;2022-10-15T06:05:18;13.99;97.51
68378;DHT22;55322;48.146;11.516;2022-10-15T06:07:43;14.02;97.41
68378;DHT22;55322;48.146;11.516;2022-10-15T06:10:09;14.09;96.97
68378;DHT22;55322;48.146;11.516;2022-10-15T06:12:34;14.15;96.86
68378;DHT22;55322;48.146;11.516;2022-10-15T06:14:59;14.16;96.48
68378;DHT22;55322;48.146;11.516;2022-10-15T06:17:25;14.10;97.06
68378;DHT22;55322;48.146;11.516;2022-10-15T06:19:50;14.09;97.10
68378;DHT22;55322;48.146;11.516;2022-10-15T06:22:15;14.09;97.08
68378;DHT22;55322;48.146;11.516;2022-10-15T06:24:41;14.10;97.18
68378;DHT22;55322;48.146;11.516;2022-10-15T06:27:06;14.12;97.20
68378;DHT22;55322;48.146;11.516;2022-10-15T06:29:33;14.09;97.32
68378;DHT22;55322;48.146;11.516;2022-10-15T06:31:58;14.09;97.49
68378;DHT22;55322;48.146;11.516;2022-10-15T06:34:23;14.09;97.37
68378;DHT22;55322;48.146;11.516;2022-10-15T06:36:48;14.08;97.59
68378;DHT22;55322;48.146;11.516;2022-10-15T06:39:14;14.08;97.50
68378;DHT22;55322;48.146;11.516;2022-10-15T06:41:39;14.12;97.22
68378;DHT22;55322;48.146;11.516;2022-10-15T06:44:04;14.15;97.42
68378;DHT22;55322;48.146;11.516;2022-10-15T06:46:30;14.18;97.50
68378;DHT22;55322;48.146;11.516;2022-10-15T06:48:55;14.16;97.54
68378;DHT22;55322;48.146;11.516;2022-10-15T06:51:20;14.18;97.37
68378;DHT22;55322;48.146;11.516;2022-10-15T06:53:46;14.18;97.85
68378;DHT22;55322;48.146;11.516;2022-10-15T06:56:11;14.23;97.45
68378;DHT22;55322;48.146;11.516;2022-10-15T06:58:36;14.29;97.04
68378;DHT22;55322;48.146;11.516;2022-10-15T07:01:04;14.32;97.26
68378;DHT22;55322;48.146;11.516;2022-10-15T07:03:30;14.39;96.80
68378;DHT22;55322;48.146;11.516;2022-10-15T07:05:55;14.63;96.97
68378;DHT22;55322;48.146;11.516;2022-10-15T07:08:21;14.64;96.99
68378;DHT22;55322;48.146;11.516;2022-10-15T07:10:46;14.81;96.34
68378;DHT22;55322;48.146;11.516;2022-10-15T07:13:11;14.74;95.96
68378;DHT22;55322;48.146;11.516;2022-10-15T07:15:37;14.73;96.27
68378;DHT22;55322;48.146;11.516;2022-10-15T07:18:02;14.71;95.82
68378;DHT22;55322;48.146;11.516;2022-10-15T07:20:29;14.56;96.27
68378;DHT22;55322;48.146;11.516;2022-10-15T07:22:58;14.53;96.53
68378;DHT22;55322;48.146;11.516;2022-10-15T07:25:25;14.56;96.18
68378;DHT22;55322;48.146;11.516;2022-10-15T07:27:51;14.61;96.13
68378;DHT22;55322;48.146;11.516;2022-10-15T07:30:16;14.61;96.20
68378;DHT22;55322;48.146;11.516;2022-10-15T07:32:42;14.61;95.40
68378;DHT22;55322;48.146;11.516;2022-10-15T07:35:07;14.66;95.54
68378;DHT22;55322;48.146;11.516;2022-10-15T07:37:33;14.61;96.35
68378;DHT22;55322;48.146;11.516;2022-10-15T07:39:58;14.60;96.30
68378;DHT22;55322;48.146;11.516;2022-10-15T07:42:24;14.57;96.58
68378;DHT22;55322;48.146;11.516;2022-10-15T07:44:49;14.66;96.13
68378;DHT22;55322;48.146;11.516;2022-10-15T07:47:14;14.57;96.59
68378;DHT22;55322;48.146;11.516;2022-10-15T07:49:40;14.52;96.88
68378;DHT22;55322;48.146;11.516;2022-10-15T07:52:05;14.56;96.65
68378;DHT22;55322;48.146;11.516;2022-10-15T07:54:33;14.49;96.95
68378;DHT22;55322;48.146;11.516;2022-10-15T07:56:58;14.53;96.83
68378;DHT22;55322;48.146;11.516;2022-10-15T07:59:23;14.50;96.84
68378;DHT22;55322;48.146;11.516;2022-10-15T08:01:49;14.56;96.28
68378;DHT22;55322;48.146;11.516;2022-10-15T08:04:15;14.59;96.18
68378;DHT22;55322;48.146;11.516;2022-10-15T08:06:41;14.57;96.45
68378;DHT22;55322;48.146;11.516;2022-10-15T08:09:06;14.60;96.30
68378;DHT22;55322;48.146;11.516;2022-10-15T08:11:32;14.63;96.19
68378;DHT22;55322;48.146;11.516;2022-10-15T08:13:57;14.59;96.06
68378;DHT22;55322;48.146;11.516;2022-10-15T08:16:22;14.63;95.76
68378;DHT22;55322;48.146;11.516;2022-10-15T08:18:48;14.66;95.89
68378;DHT22;55322;48.146;11.516;2022-10-15T08:21:13;14.69;95.52
68378;DHT22;55322;48.146;11.516;2022-10-15T08:23:38;14.79;95.06
68378;DHT22;55322;48.146;11.516;2022-10-15T08:26:04;14.74;95.17
68378;DHT22;55322;48.146;11.516;2022-10-15T08:28:31;14.79;95.05
68378;DHT22;55322;48.146;11.516;2022-10-15T08:30:57;14.77;95.01
68378;DHT22;55322;48.146;11.516;2022-10-15T08:33:23;14.77;95.07
68378;DHT22;55322;48.146;11.516;2022-10-15T08:35:49;14.76;94.71
68378;DHT22;55322;48.146;11.516;2022-10-15T08:38:15;14.83;94.27
68378;DHT22;55322;48.146;11.516;2022-10-15T08:40:48;14.84;94.29
68378;DHT22;55322;48.146;11.516;2022-10-15T08:43:34;14.85;93.99
68378;DHT22;55322;48.146;11.516;2022-10-15T08:46:02;14.83;94.58
68378;DHT22;55322;48.146;11.516;2022-10-15T08:48:35;14.84;94.54
68378;DHT22;55322;48.146;11.516;2022-10-15T08:51:05;14.85;93.71
68378;DHT22;55322;48.146;11.516;2022-10-15T08:53:39;14.85;94.07
68378;DHT22;55322;48.146;11.516;2022-10-15T08:56:29;14.93;93.37
68378;DHT22;55322;48.146;11.516;2022-10-15T08:59:25;14.85;94.12
68378;DHT22;55322;48.146;11.516;2022-10-15T09:07:01;14.90;94.18
68378;DHT22;55322;48.146;11.516;2022-10-15T09:09:51;14.93;94.24
68378;DHT22;55322;48.146;11.516;2022-10-15T09:14:49;15.17;94.24
68378;DHT22;55322;48.146;11.516;2022-10-15T09:17:20;15.27;94.72
68378;DHT22;55322;48.146;11.516;2022-10-15T09:19:56;15.41;94.31
68378;DHT22;55322;48.146;11.516;2022-10-15T09:22:27;15.51;93.55
68378;DHT22;55322;48.146;11.516;2022-10-15T09:24:54;15.65;92.88
68378;DHT22;55322;48.146;11.516;2022-10-15T09:27:30;15.86;93.41
68378;DHT22;55322;48.146;11.516;2022-10-15T09:32:44;16.29;91.58
68378;DHT22;55322;48.146;11.516;2022-10-15T09:38:15;16.51;91.23
68378;DHT22;55322;48.146;11.516;2022-10-15T09:43:29;16.77;90.82
68378;DHT22;55322;48.146;11.516;2022-10-15T09:45:58;16.78;90.70
68378;DHT22;55322;48.146;11.516;2022-10-15T09:48:25;16.80;90.09
68378;DHT22;55322;48.146;11.516;2022-10-15T09:50:57;16.70;89.79
68378;DHT22;55322;48.146;11.516;2022-10-15T09:56:17;16.67;90.26
68378;DHT22;55322;48.146;11.516;2022-10-15T09:58:54;16.78;89.09
68378;DHT22;55322;48.146;11.516;2022-10-15T10:01:25;16.89;88.49
68378;DHT22;55322;48.146;11.516;2022-10-15T10:04:18;17.00;88.54
68378;DHT22;55322;48.146;11.516;2022-10-15T10:06:56;17.19;88.14
68378;DHT22;55322;48.146;11.516;2022-10-15T10:09:52;17.39;85.23
68378;DHT22;55322;48.146;11.516;2022-10-15T10:12:24;17.69;86.85
68378;DHT22;55322;48.146;11.516;2022-10-15T10:14:57;18.10;84.31
68378;DHT22;55322;48.146;11.516;2022-10-15T10:17:27;19.15;80.98
68378;DHT22;55322;48.146;11.516;2022-10-15T10:30:21;21.02;71.98
68378;DHT22;55322;48.146;11.516;2022-10-15T10:32:47;20.89;72.67
68378;DHT22;55322;48.146;11.516;2022-10-15T10:35:21;21.42;71.26
68378;DHT22;55322;48.146;11.516;2022-10-15T10:37:48;21.39;67.14
68378;DHT22;55322;48.146;11.516;2022-10-15T10:40:27;21.54;67.52
68378;DHT22;55322;48.146;11.516;2022-10-15T10:48:44;21.20;67.80
68378;DHT22;55322;48.146;11.516;2022-10-15T10:51:16;21.15;68.65
68378;DHT22;55322;48.146;11.516;2022-10-15T10:54:04;21.56;64.03
68378;DHT22;55322;48.146;11.516;2022-10-15T10:56:38;21.33;67.59
68378;DHT22;55322;48.146;11.516;2022-10-15T10:59:25;20.99;65.05
68378;DHT22;55322;48.146;11.516;2022-10-15T11:01:51;20.88;67.06
68378;DHT22;55322;48.146;11.516;2022-10-15T11:04:30;20.74;68.36
68378;DHT22;55322;48.146;11.516;2022-10-15T11:07:03;20.94;68.93
68378;DHT22;55322;48.146;11.516;2022-10-15T11:09:51;20.86;66.83
68378;DHT22;55322;48.146;11.516;2022-10-15T11:22:41;21.09;65.58
68378;DHT22;55322;48.146;11.516;2022-10-15T11:25:39;20.82;65.39
68378;DHT22;55322;48.146;11.516;2022-10-15T11:28:28;20.58;65.48
68378;DHT22;55322;48.146;11.516;2022-10-15T11:33:41;20.24;67.86
68378;DHT22;55322;48.146;11.516;2022-10-15T11:36:25;20.07;67.89
68378;DHT22;55322;48.146;11.516;2022-10-15T11:50:31;19.65;70.24
68378;DHT22;55322;48.146;11.516;2022-10-15T11:55:40;19.60;69.68
68378;DHT22;55322;48.146;11.516;2022-10-15T11:58:15;19.66;69.27
68378;DHT22;55322;48.146;11.516;2022-10-15T12:00:49;19.77;68.97
68378;DHT22;55322;48.146;11.516;2022-10-15T12:03:19;19.81;69.25
68378;DHT22;55322;48.146;11.516;2022-10-15T12:05:53;19.97;67.66
68378;DHT22;55322;48.146;11.516;2022-10-15T12:08:20;20.06;68.03
68378;DHT22;55322;48.146;11.516;2022-10-15T12:14:04;19.80;67.59
68378;DHT22;55322;48.146;11.516;2022-10-15T12:16:35;19.73;69.11
68378;DHT22;55322;48.146;11.516;2022-10-15T12:19:15;19.87;67.07
68378;DHT22;55322;48.146;11.516;2022-10-15T12:27:22;20.09;66.06
68378;DHT22;55322;48.146;11.516;2022-10-15T12:29:50;20.10;66.08
68378;DHT22;55322;48.146;11.516;2022-10-15T12:32:25;20.09;65.91
68378;DHT22;55322;48.146;11.516;2022-10-15T12:34:58;20.03;66.42
68378;DHT22;55322;48.146;11.516;2022-10-15T12:37:31;19.83;67.34
68378;DHT22;55322;48.146;11.516;2022-10-15T12:40:01;19.69;67.84
68378;DHT22;55322;48.146;11.516;2022-10-15T12:42:32;19.58;69.40
68378;DHT22;55322;48.146;11.516;2022-10-15T12:45:01;19.86;67.88
68378;DHT22;55322;48.146;11.516;2022-10-15T12:47:47;20.00;66.11
68378;DHT22;55322;48.146;11.516;2022-10-15T12:50:34;19.83;67.83
68378;DHT22;55322;48.146;11.516;2022-10-15T12:53:01;19.97;67.89
68378;DHT22;55322;48.146;11.516;2022-10-15T12:55:38;20.17;67.27
68378;DHT22;55322;48.146;11.516;2022-10-15T12:58:18;20.43;65.36
68378;DHT22;55322;48.146;11.516;2022-10-15T13:00:48;20.48;65.15
68378;DHT22;55322;48.146;11.516;2022-10-15T13:03:26;20.35;66.70
68378;DHT22;55322;48.146;11.516;2022-10-15T13:06:23;20.31;65.71
68378;DHT22;55322;48.146;11.516;2022-10-15T13:08:52;20.27;66.97
68378;DHT22;55322;48.146;11.516;2022-10-15T13:11:29;20.04;67.63
68378;DHT22;55322;48.146;11.516;2022-10-15T13:14:02;19.87;69.07
68378;DHT22;55322;48.146;11.516;2022-10-15T13:16:34;19.48;70.66
68378;DHT22;55322;48.146;11.516;2022-10-15T13:19:01;19.33;71.17
68378;DHT22;55322;48.146;11.516;2022-10-15T13:21:54;19.15;69.88
68378;DHT22;55322;48.146;11.516;2022-10-15T13:24:22;19.23;72.01
68378;DHT22;55322;48.146;11.516;2022-10-15T13:26:48;19.20;72.15
68378;DHT22;55322;48.146;11.516;2022-10-15T13:29:19;19.16;72.93
68378;DHT22;55322;48.146;11.516;2022-10-15T13:31:45;19.02;72.65
68378;DHT22;55322;48.146;11.516;2022-10-15T13:36:45;19.05;71.65
68378;DHT22;55322;48.146;11.516;2022-10-15T13:39:28;18.99;71.64
68378;DHT22;55322;48.146;11.516;2022-10-15T13:44:38;18.84;72.39
68378;DHT22;55322;48.146;11.516;2022-10-15T13:47:24;18.74;73.24
68378;DHT22;55322;48.146;11.516;2022-10-15T13:49:50;18.72;73.52
68378;DHT22;55322;48.146;11.516;2022-10-15T13:52:16;18.72;74.40
68378;DHT22;55322;48.146;11.516;2022-10-15T13:54:43;18.68;74.10
68378;DHT22;55322;48.146;11.516;2022-10-15T13:57:13;19.05;72.74
68378;DHT22;55322;48.146;11.516;2022-10-15T13:59:43;19.08;71.40
68378;DHT22;55322;48.146;11.516;2022-10-15T14:02:10;19.38;71.65
68378;DHT22;55322;48.146;11.516;2022-10-15T14:04:36;19.35;71.50
68378;DHT22;55322;48.146;11.516;2022-10-15T14:07:04;19.28;71.63
68378;DHT22;55322;48.146;11.516;2022-10-15T14:09:45;19.28;72.24
68378;DHT22;55322;48.146;11.516;2022-10-15T14:12:10;19.23;71.56
68378;DHT22;55322;48.146;11.516;2022-10-15T14:14:41;19.15;70.26
68378;DHT22;55322;48.146;11.516;2022-10-15T14:17:10;18.91;72.88
68378;DHT22;55322;48.146;11.516;2022-10-15T14:19:48;18.71;71.25
68378;DHT22;55322;48.146;11.516;2022-10-15T14:22:16;18.54;73.63
68378;DHT22;55322;48.146;11.516;2022-10-15T14:24:41;18.45;73.84
68378;DHT22;55322;48.146;11.516;2022-10-15T14:27:15;18.18;75.97
68378;DHT22;55322;48.146;11.516;2022-10-15T14:29:43;18.20;76.23
68378;DHT22;55322;48.146;11.516;2022-10-15T14:34:58;18.18;75.06
68378;DHT22;55322;48.146;11.516;2022-10-15T14:37:40;18.17;76.06
68378;DHT22;55322;48.146;11.516;2022-10-15T14:43:00;18.26;75.45
68378;DHT22;55322;48.146;11.516;2022-10-15T14:45:29;18.30;75.72
68378;DHT22;55322;48.146;11.516;2022-10-15T14:48:05;18.20;76.30
68378;DHT22;55322;48.146;11.516;2022-10-15T14:50:35;18.23;74.46
68378;DHT22;55322;48.146;11.516;2022-10-15T14:53:07;18.16;75.19
68378;DHT22;55322;48.146;11.516;2022-10-15T14:55:41;17.97;76.84
68378;DHT22;55322;48.146;11.516;2022-10-15T14:58:15;17.99;76.74
68378;DHT22;55322;48.146;11.516;2022-10-15T15:00:44;17.91;77.44
68378;DHT22;55322;48.146;11.516;2022-10-15T15:03:17;17.89;76.64
68378;DHT22;55322;48.146;11.516;2022-10-15T15:05:47;17.82;76.23
68378;DHT22;55322;48.146;11.516;2022-10-15T15:08:13;17.62;77.57
68378;DHT22;55322;48.146;11.516;2022-10-15T15:10:38;17.46;78.62
68378;DHT22;55322;48.146;11.516;2022-10-15T15:13:04;17.38;78.73
68378;DHT22;55322;48.146;11.516;2022-10-15T15:15:30;17.14;79.91
68378;DHT22;55322;48.146;11.516;2022-10-15T15:17:55;17.21;77.43
68378;DHT22;55322;48.146;11.516;2022-10-15T15:20:21;17.21;76.58
68378;DHT22;55322;48.146;11.516;2022-10-15T15:22:49;17.07;79.65
68378;DHT22;55322;48.146;11.516;2022-10-15T15:25:18;17.00;77.78
68378;DHT22;55322;48.146;11.516;2022-10-15T15:27:44;16.98;78.04
68378;DHT22;55322;48.146;11.516;2022-10-15T15:30:21;16.96;77.96
68378;DHT22;55322;48.146;11.516;2022-10-15T15:32:47;17.01;77.75
68378;DHT22;55322;48.146;11.516;2022-10-15T15:35:31;17.08;78.25
68378;DHT22;55322;48.146;11.516;2022-10-15T15:37:59;17.07;77.63
68378;DHT22;55322;48.146;11.516;2022-10-15T15:40:24;17.14;77.82
68378;DHT22;55322;48.146;11.516;2022-10-15T15:42:50;17.12;77.90
68378;DHT22;55322;48.146;11.516;2022-10-15T15:45:21;17.12;77.43
68378;DHT22;55322;48.146;11.516;2022-10-15T15:47:47;17.10;77.67
68378;DHT22;55322;48.146;11.516;2022-10-15T15:50:13;17.07;78.71
68378;DHT22;55322;48.146;11.516;2022-10-15T15:52:39;17.03;79.01
68378;DHT22;55322;48.146;11.516;2022-10-15T15:55:05;16.94;79.47
68378;DHT22;55322;48.146;11.516;2022-10-15T15:57:30;16.89;79.23
68378;DHT22;55322;48.146;11.516;2022-10-15T15:59:55;16.84;79.48
68378;DHT22;55322;48.146;11.516;2022-10-15T16:02:21;16.71;79.20
68378;DHT22;55322;48.146;11.516;2022-10-15T16:04:46;16.67;79.94
68378;DHT22;55322;48.146;11.516;2022-10-15T16:07:11;16.53;82.07
68378;DHT22;55322;48.146;11.516;2022-10-15T17:00:11;15.18;86.69
68378;DHT22;55322;48.146;11.516;2022-10-15T17:02:36;15.10;86.91
68378;DHT22;55322;48.146;11.516;2022-10-15T17:05:02;15.04;87.33
68378;DHT22;55322;48.146;11.516;2022-10-15T17:07:27;14.93;87.06
68378;DHT22;55322;48.146;11.516;2022-10-15T17:09:52;14.84;87.64
68378;DHT22;55322;48.146;11.516;2022-10-15T17:12:18;14.80;88.02
68378;DHT22;55322;48.146;11.516;2022-10-15T17:14:48;14.83;88.88
68378;DHT22;55322;48.146;11.516;2022-10-15T17:17:14;14.87;88.13
68378;DHT22;55322;48.146;11.516;2022-10-15T17:19:40;14.87;88.01
68378;DHT22;55322;48.146;11.516;2022-10-15T17:22:05;14.88;89.00
68378;DHT22;55322;48.146;11.516;2022-10-15T17:24:30;14.94;88.36
68378;DHT22;55322;48.146;11.516;2022-10-15T17:26:56;14.94;88.38
68378;DHT22;55322;48.146;11.516;2022-10-15T17:29:22;14.87;88.83
68378;DHT22;55322;48.146;11.516;2022-10-15T17:31:49;14.81;88.98
68378;DHT22;55322;48.146;11.516;2022-10-15T17:34:15;14.81;89.71
68378;DHT22;55322;48.146;11.516;2022-10-15T17:36:46;14.79;89.86
68378;DHT22;55322;48.146;11.516;2022-10-15T17:39:16;14.79;89.52
68378;DHT22;55322;48.146;11.516;2022-10-15T17:41:42;14.76;90.11
68378;DHT22;55322;48.146;11.516;2022-10-15T17:44:07;14.76;89.74
68378;DHT22;55322;48.146;11.516;2022-10-15T17:46:33;14.71;89.93
68378;DHT22;55322;48.146;11.516;2022-10-15T17:48:58;14.77;90.26
68378;DHT22;55322;48.146;11.516;2022-10-15T17:51:28;14.73;90.69
68378;DHT22;55322;48.146;11.516;2022-10-15T17:53:53;14.77;90.14
68378;DHT22;55322;48.146;11.516;2022-10-15T17:56:28;14.73;90.86
68378;DHT22;55322;48.146;11.516;2022-10-15T17:58:54;14.71;90.31